Time;durP1;ratioP1;P1;durP2;ratioP2;P2;SDS_P1;SDS_P2;PMS_P1;PMS_P2;Temp;Humidity;BMP_temperature;BMP_pressure;BME280_temperature;BME280_humidity;BME280_pressure;Samples;Min_cycle;Max_cycle;Signal;HPM_P1;HPM_P2
2023/05/24 00:02:06;;;;;;;17.13;7.57;;;8.00;99.90;;;;;;5099823;27;20724;-74
2023/05/24 00:04:32;;;;;;;27.30;8.93;;;8.00;99.90;;;;;;5104041;28;20123;-73
2023/05/24 00:07:02;;;;;;;23.55;8.65;;;8.00;99.90;;;;;;5103408;28;20126;-73
2023/05/24 00:09:29;;;;;;;31.60;9.63;;;8.00;99.90;;;;;;5083545;28;20071;-74
2023/05/24 00:11:55;;;;;;;20.50;7.38;;;8.00;99.90;;;;;;5104714;28;20044;-73
2023/05/24 00:14:21;;;;;;;23.73;7.75;;;8.00;99.90;;;;;;5087414;28;20055;-73
2023/05/24 00:16:47;;;;;;;27.25;8.50;;;8.00;99.90;;;;;;5102783;28;20040;-73
2023/05/24 00:19:17;;;;;;;21.95;8.05;;;8.00;99.90;;;;;;5082359;28;20379;-74
2023/05/24 00:21:46;;;;;;;18.77;7.10;;;8.10;99.90;;;;;;5085119;28;20150;-73
2023/05/24 00:24:13;;;;;;;31.35;10.57;;;8.10;99.90;;;;;;5086657;28;20043;-74
2023/05/24 00:26:39;;;;;;;22.98;8.43;;;8.10;99.90;;;;;;5087006;28;20058;-74
2023/05/24 00:29:05;;;;;;;18.67;7.97;;;8.10;99.90;;;;;;5102219;28;20558;-74
2023/05/24 00:31:31;;;;;;;23.92;8.80;;;8.10;99.90;;;;;;5068525;28;20040;-74
2023/05/24 00:33:57;;;;;;;24.58;9.43;;;8.10;99.90;;;;;;5102182;28;20040;-74
2023/05/24 00:36:23;;;;;;;25.52;8.60;;;8.10;99.90;;;;;;5085998;28;20046;-74
2023/05/24 00:38:49;;;;;;;21.52;7.82;;;8.10;99.90;;;;;;5101581;28;20108;-74
2023/05/24 00:41:15;;;;;;;24.38;9.07;;;8.10;99.90;;;;;;5083473;28;20051;-74
2023/05/24 00:43:43;;;;;;;28.10;9.88;;;8.10;99.90;;;;;;5088231;28;20039;-74
2023/05/24 00:46:29;;;;;;;27.80;9.60;;;8.10;99.90;;;;;;5118903;27;20446;-74
2023/05/24 00:48:55;;;;;;;24.33;9.55;;;8.10;99.90;;;;;;5087715;28;20503;-74
2023/05/24 00:51:29;;;;;;;24.38;8.63;;;8.00;99.90;;;;;;5084860;28;20048;-74
2023/05/24 00:53:55;;;;;;;26.10;8.80;;;8.10;99.90;;;;;;5102467;28;20044;-75
2023/05/24 00:56:25;;;;;;;28.35;9.18;;;8.10;99.90;;;;;;5084951;27;20602;-75
2023/05/24 00:58:54;;;;;;;22.85;8.00;;;8.10;99.90;;;;;;5101583;27;20048;-74
2023/05/24 01:01:24;;;;;;;27.53;10.03;;;8.10;99.90;;;;;;5103368;28;20036;-74
2023/05/24 01:03:52;;;;;;;26.25;10.48;;;8.10;99.90;;;;;;5103542;27;20054;-74
2023/05/24 01:06:18;;;;;;;24.17;8.32;;;8.00;99.90;;;;;;5075486;28;20566;-73
2023/05/24 01:09:05;;;;;;;25.92;9.65;;;8.00;99.90;;;;;;5098596;28;20047;-74
2023/05/24 01:11:55;;;;;;;22.75;8.20;;;8.00;99.90;;;;;;5095828;28;20083;-74
2023/05/24 01:15:03;;;;;;;28.48;10.73;;;7.90;99.90;;;;;;5086532;28;20096;-75
2023/05/24 01:17:41;;;;;;;27.35;9.68;;;7.90;99.90;;;;;;5075556;28;20048;-75
2023/05/24 01:20:09;;;;;;;22.92;8.85;;;7.90;99.90;;;;;;5091233;28;20046;-75
2023/05/24 01:23:10;;;;;;;24.25;8.15;;;7.90;99.90;;;;;;5084840;28;20081;-75
2023/05/24 01:26:16;;;;;;;25.83;9.70;;;7.90;99.90;;;;;;5085509;28;20461;-75
2023/05/24 01:28:43;;;;;;;27.08;9.30;;;7.90;99.90;;;;;;5084427;28;20044;-75
2023/05/24 01:31:11;;;;;;;25.27;9.55;;;7.80;99.90;;;;;;5105107;28;20044;-75
2023/05/24 01:33:41;;;;;;;30.58;10.43;;;7.90;99.90;;;;;;5103382;28;20500;-75
2023/05/24 01:36:07;;;;;;;25.52;9.85;;;7.80;99.90;;;;;;5085676;28;20052;-75
2023/05/24 01:38:33;;;;;;;27.85;9.63;;;7.80;99.90;;;;;;5085164;28;20067;-75
2023/05/24 01:41:22;;;;;;;29.63;10.07;;;7.80;99.90;;;;;;5096708;28;20059;-75
2023/05/24 01:44:13;;;;;;;26.88;10.57;;;7.90;99.90;;;;;;5083380;28;20044;-75
2023/05/24 01:46:39;;;;;;;32.10;10.88;;;7.80;99.90;;;;;;5079955;28;20052;-75
2023/05/24 01:49:22;;;;;;;23.70;9.25;;;7.90;99.90;;;;;;5081420;28;20039;-75
2023/05/24 01:51:52;;;;;;;22.73;9.18;;;7.90;99.90;;;;;;5100688;28;20043;-75
2023/05/24 01:54:20;;;;;;;;;;;7.80;99.90;;;;;;5099311;28;20066;-75
2023/05/24 01:56:51;;;;;;;;;;;7.80;99.90;;;;;;5087367;28;19919;-75
2023/05/24 01:59:17;;;;;;;24.67;8.63;;;7.80;99.90;;;;;;5101032;28;20056;-75
2023/05/24 02:01:43;;;;;;;22.35;9.00;;;7.80;99.90;;;;;;5126349;27;20040;-75
2023/05/24 02:04:09;;;;;;;27.40;10.20;;;7.80;99.90;;;;;;5063566;28;20515;-75
2023/05/24 02:06:36;;;;;;;28.52;10.52;;;7.80;99.90;;;;;;5113114;27;20308;-75
2023/05/24 02:09:02;;;;;;;30.90;10.30;;;7.80;99.90;;;;;;5111831;27;20105;-75
2023/05/24 02:11:28;;;;;;;25.60;10.43;;;7.80;99.90;;;;;;5090566;27;20089;-75
2023/05/24 02:13:54;;;;;;;22.73;9.10;;;7.80;99.90;;;;;;5091195;28;20049;-75
2023/05/24 02:16:25;;;;;;;24.52;9.77;;;7.70;99.90;;;;;;5083811;28;20574;-75
2023/05/24 02:18:54;;;;;;;23.02;8.73;;;7.70;99.90;;;;;;5080761;28;20071;-75
2023/05/24 02:21:19;;;;;;;28.25;8.77;;;7.70;99.90;;;;;;5110626;27;20075;-75
2023/05/24 02:23:45;;;;;;;25.98;9.45;;;7.70;99.90;;;;;;5076693;28;20071;-75
2023/05/24 02:26:12;;;;;;;25.15;9.10;;;7.70;99.90;;;;;;5109366;27;20054;-75
2023/05/24 02:28:38;;;;;;;30.20;10.02;;;7.70;99.90;;;;;;5075124;28;20122;-75
2023/05/24 02:31:04;;;;;;;29.77;9.35;;;7.80;99.90;;;;;;5073957;28;20134;-75
2023/05/24 02:33:30;;;;;;;29.20;10.68;;;7.80;99.90;;;;;;5099104;28;20039;-75
2023/05/24 02:35:56;;;;;;;21.45;8.98;;;7.80;99.90;;;;;;5084919;28;20507;-75
2023/05/24 02:38:22;;;;;;;28.08;9.55;;;7.90;99.90;;;;;;5053387;28;20054;-75
2023/05/24 02:40:48;;;;;;;31.42;10.93;;;7.90;99.90;;;;;;5086467;28;20047;-75
2023/05/24 02:43:14;;;;;;;25.00;9.98;;;7.90;99.90;;;;;;5097300;28;20844;-75
2023/05/24 02:45:40;;;;;;;21.95;8.52;;;7.90;99.90;;;;;;5080297;28;20047;-75
2023/05/24 02:48:06;;;;;;;24.83;10.15;;;7.90;99.90;;;;;;5050222;28;20504;-75
2023/05/24 02:50:31;;;;;;;23.33;9.30;;;7.90;99.90;;;;;;5071358;28;20512;-75
2023/05/24 02:52:57;;;;;;;26.13;9.48;;;7.90;99.90;;;;;;5081527;28;20044;-75
2023/05/24 02:55:23;;;;;;;30.13;10.48;;;8.00;99.90;;;;;;5084738;28;20492;-75
2023/05/24 02:57:49;;;;;;;18.33;8.05;;;8.00;99.90;;;;;;5083935;28;20040;-75
2023/05/24 03:00:15;;;;;;;24.15;8.50;;;8.00;99.90;;;;;;5100641;28;20038;-75
2023/05/24 03:02:41;;;;;;;25.55;8.85;;;8.00;99.90;;;;;;5067948;28;20487;-75
2023/05/24 03:05:07;;;;;;;27.15;10.20;;;8.00;99.90;;;;;;5067002;28;20509;-75
2023/05/24 03:07:33;;;;;;;25.27;10.15;;;7.90;99.90;;;;;;5102033;28;20063;-75
2023/05/24 03:09:59;;;;;;;24.70;9.05;;;7.90;99.90;;;;;;5086390;28;20105;-75
2023/05/24 03:12:24;;;;;;;29.27;11.07;;;8.00;99.90;;;;;;5082084;28;20159;-75
2023/05/24 03:14:50;;;;;;;23.90;9.70;;;8.00;99.90;;;;;;5082223;28;20055;-75
2023/05/24 03:17:16;;;;;;;23.70;9.57;;;7.90;99.90;;;;;;5063203;28;20055;-75
2023/05/24 03:19:42;;;;;;;24.95;10.27;;;8.00;99.90;;;;;;5080301;28;20535;-75
2023/05/24 03:22:08;;;;;;;23.73;9.55;;;8.00;99.90;;;;;;5082849;28;20044;-75
2023/05/24 03:24:33;;;;;;;24.73;8.48;;;8.00;99.90;;;;;;5080827;28;20127;-75
2023/05/24 03:26:59;;;;;;;22.38;8.43;;;8.10;99.90;;;;;;5096481;28;20406;-75
2023/05/24 03:29:25;;;;;;;24.17;9.10;;;8.00;99.90;;;;;;5073973;28;20120;-75
2023/05/24 03:31:51;;;;;;;22.92;9.52;;;8.10;99.90;;;;;;5068410;28;20048;-75
2023/05/24 03:34:17;;;;;;;35.38;11.52;;;8.10;99.90;;;;;;5090592;28;20082;-75
2023/05/24 03:36:43;;;;;;;23.42;9.50;;;8.10;99.90;;;;;;5072824;28;20765;-75
2023/05/24 03:39:09;;;;;;;23.42;8.93;;;8.20;99.90;;;;;;5054624;27;20044;-76
2023/05/24 03:41:35;;;;;;;24.50;9.30;;;8.20;99.90;;;;;;5084690;28;20436;-75
2023/05/24 03:44:00;;;;;;;28.27;9.68;;;8.20;99.90;;;;;;5051868;28;20031;-75
2023/05/24 03:46:26;;;;;;;23.63;9.18;;;8.20;99.90;;;;;;5138870;27;20512;-75
2023/05/24 03:48:52;;;;;;;23.88;9.38;;;8.30;99.90;;;;;;5121555;27;20176;-75
2023/05/24 03:51:18;;;;;;;27.05;9.15;;;8.30;99.90;;;;;;5099509;27;20035;-75
2023/05/24 03:53:46;;;;;;;24.08;8.50;;;8.30;99.90;;;;;;5086171;28;20397;-75
2023/05/24 03:56:12;;;;;;;29.27;11.07;;;8.30;99.90;;;;;;5090104;28;20354;-75
2023/05/24 03:58:38;;;;;;;23.33;8.85;;;8.30;99.90;;;;;;5069753;28;20529;-75
2023/05/24 04:01:04;;;;;;;28.20;9.55;;;8.40;99.90;;;;;;5085571;28;20077;-76
2023/05/24 04:03:32;;;;;;;23.85;8.75;;;8.40;99.90;;;;;;5105313;27;20147;-75
2023/05/24 04:05:58;;;;;;;24.70;8.65;;;8.40;99.90;;;;;;5090609;28;20136;-75
2023/05/24 04:08:24;;;;;;;22.75;8.55;;;8.40;99.90;;;;;;5060079;28;20048;-75
2023/05/24 04:10:53;;;;;;;17.58;8.00;;;8.50;99.90;;;;;;5092251;28;20573;-75
2023/05/24 04:13:18;;;;;;;23.65;9.13;;;8.50;99.90;;;;;;5058232;28;20054;-75
2023/05/24 04:15:44;;;;;;;25.05;9.10;;;8.50;99.90;;;;;;5121174;27;20039;-75
2023/05/24 04:18:10;;;;;;;22.42;8.27;;;8.50;99.90;;;;;;5076374;28;20177;-75
2023/05/24 04:20:37;;;;;;;27.40;9.30;;;8.50;99.90;;;;;;5078237;28;20048;-76
2023/05/24 04:23:03;;;;;;;21.90;8.98;;;8.60;99.90;;;;;;5102422;28;20051;-75
2023/05/24 04:25:32;;;;;;;22.70;8.40;;;8.60;99.90;;;;;;5108211;27;20043;-75
2023/05/24 04:27:59;;;;;;;18.88;7.15;;;8.60;99.90;;;;;;5078144;28;20525;-75
2023/05/24 04:30:25;;;;;;;24.33;8.98;;;8.60;99.90;;;;;;5110402;27;20123;-76
2023/05/24 04:32:54;;;;;;;19.35;7.50;;;8.70;99.90;;;;;;5102016;27;20055;-75
2023/05/24 04:35:20;;;;;;;25.30;8.43;;;8.70;99.90;;;;;;5067323;28;20052;-75
2023/05/24 04:37:49;;;;;;;25.27;8.52;;;8.70;99.90;;;;;;5118843;27;20052;-76
2023/05/24 04:40:15;;;;;;;23.38;8.50;;;8.80;99.90;;;;;;5087873;28;20439;-75
2023/05/24 04:42:41;;;;;;;20.38;8.27;;;8.80;99.90;;;;;;5083343;28;20108;-75
2023/05/24 04:45:07;;;;;;;25.95;8.43;;;8.80;99.90;;;;;;5094121;28;20040;-75
2023/05/24 04:47:33;;;;;;;23.00;7.75;;;8.90;99.90;;;;;;5118194;27;20055;-76
2023/05/24 04:49:59;;;;;;;23.63;8.38;;;8.90;99.90;;;;;;5100886;28;20048;-75
2023/05/24 04:52:25;;;;;;;26.20;8.32;;;9.00;99.90;;;;;;5102663;28;20032;-75
2023/05/24 04:54:54;;;;;;;25.42;8.57;;;9.00;99.90;;;;;;5115885;27;20526;-75
2023/05/24 04:57:23;;;;;;;27.52;9.57;;;9.00;99.90;;;;;;5133390;27;20042;-75
2023/05/24 04:59:48;;;;;;;21.02;7.40;;;9.00;99.90;;;;;;5070197;28;20184;-75
2023/05/24 05:02:14;;;;;;;27.25;9.15;;;9.10;99.90;;;;;;5087018;28;20134;-75
2023/05/24 05:04:40;;;;;;;22.40;7.90;;;9.10;99.90;;;;;;5116051;27;20490;-75
2023/05/24 05:07:06;;;;;;;24.80;8.50;;;9.20;99.90;;;;;;5114087;27;20062;-75
2023/05/24 05:09:32;;;;;;;20.80;7.30;;;9.20;99.90;;;;;;5085554;28;20452;-75
2023/05/24 05:11:58;;;;;;;24.00;8.43;;;9.20;99.90;;;;;;5082406;28;20501;-75
2023/05/24 05:14:24;;;;;;;21.15;7.85;;;9.30;99.90;;;;;;5127869;27;20040;-75
2023/05/24 05:16:56;;;;;;;23.58;7.65;;;9.40;99.90;;;;;;5096505;28;20031;-75
2023/05/24 05:19:22;;;;;;;23.98;8.50;;;9.40;99.90;;;;;;5079787;28;20067;-75
2023/05/24 05:21:48;;;;;;;21.85;7.47;;;9.50;99.90;;;;;;5069211;28;20490;-75
2023/05/24 05:24:17;;;;;;;19.15;7.45;;;9.60;99.90;;;;;;5081503;28;20524;-75
2023/05/24 05:26:43;;;;;;;21.17;7.18;;;9.70;99.90;;;;;;5111577;27;20047;-75
2023/05/24 05:29:12;;;;;;;19.52;6.68;;;9.80;99.90;;;;;;5114974;27;20036;-75
2023/05/24 05:31:41;;;;;;;21.10;7.15;;;9.80;99.90;;;;;;5083683;28;20043;-75
2023/05/24 05:34:08;;;;;;;22.55;7.28;;;9.90;99.90;;;;;;5065754;28;20258;-75
2023/05/24 05:36:39;;;;;;;16.08;6.50;;;9.90;99.90;;;;;;5066910;28;20040;-75
2023/05/24 05:41:48;;;;;;;23.65;6.78;;;9.90;99.90;;;;;;5099528;27;20404;-74
2023/05/24 05:44:13;;;;;;;20.85;6.32;;;10.00;99.90;;;;;;5090864;28;20044;-74
2023/05/24 05:46:42;;;;;;;19.52;7.85;;;10.10;99.90;;;;;;5064718;28;20052;-74
2023/05/24 05:49:09;;;;;;;20.95;7.75;;;10.20;99.90;;;;;;5095696;28;20044;-74
2023/05/24 05:51:36;;;;;;;21.60;7.35;;;10.20;99.90;;;;;;5079990;28;20044;-75
2023/05/24 05:54:02;;;;;;;20.55;6.43;;;10.30;99.90;;;;;;5049326;28;20048;-74
2023/05/24 05:56:28;;;;;;;22.50;7.55;;;10.40;99.90;;;;;;5097604;28;20590;-75
2023/05/24 05:58:54;;;;;;;18.30;6.43;;;10.50;99.90;;;;;;5060597;28;20040;-73
2023/05/24 06:01:20;;;;;;;19.83;6.63;;;10.50;99.90;;;;;;5086841;28;20132;-76
2023/05/24 06:03:46;;;;;;;22.88;6.78;;;10.50;99.90;;;;;;5064373;28;20035;-76
2023/05/24 06:06:12;;;;;;;24.08;6.53;;;10.60;99.90;;;;;;5074800;28;20047;-76
2023/05/24 06:08:39;;;;;;;21.45;6.03;;;10.60;99.90;;;;;;5079981;28;20048;-74
2023/05/24 06:11:06;;;;;;;20.55;6.43;;;10.70;99.90;;;;;;5091112;28;20054;-74
2023/05/24 06:13:31;;;;;;;21.08;5.95;;;10.70;99.90;;;;;;5097187;28;20039;-74
2023/05/24 06:15:57;;;;;;;27.42;6.78;;;10.80;99.90;;;;;;5092692;28;20450;-75
2023/05/24 06:18:25;;;;;;;25.08;6.55;;;10.80;99.90;;;;;;5097516;28;20039;-75
2023/05/24 06:20:51;;;;;;;20.63;6.10;;;11.00;99.90;;;;;;5065889;28;20040;-75
2023/05/24 06:23:16;;;;;;;21.77;6.18;;;11.10;99.90;;;;;;5078228;28;20407;-74
2023/05/24 06:25:43;;;;;;;16.83;5.55;;;11.20;99.90;;;;;;5066985;28;20039;-74
2023/05/24 06:28:09;;;;;;;21.08;6.25;;;11.30;99.90;;;;;;5092141;28;20055;-75
2023/05/24 06:30:35;;;;;;;19.25;6.07;;;11.40;99.90;;;;;;5064909;28;20046;-75
2023/05/24 06:33:01;;;;;;;17.38;5.88;;;11.50;99.90;;;;;;5097434;28;20093;-74
2023/05/24 06:35:27;;;;;;;18.50;5.38;;;11.70;99.90;;;;;;5079956;28;20121;-75
2023/05/24 06:37:52;;;;;;;20.75;5.90;;;11.70;99.90;;;;;;5078081;28;20559;-74
2023/05/24 06:40:18;;;;;;;23.23;6.30;;;11.80;99.90;;;;;;5063899;28;20567;-74
2023/05/24 06:42:44;;;;;;;19.88;6.28;;;11.80;99.90;;;;;;5080820;28;20468;-74
2023/05/24 06:45:10;;;;;;;21.33;6.40;;;11.90;99.90;;;;;;5093514;28;20073;-78
2023/05/24 06:47:36;;;;;;;18.98;5.65;;;11.90;99.90;;;;;;5093849;28;20051;-74
2023/05/24 06:50:05;;;;;;;21.88;6.40;;;11.90;99.90;;;;;;5065269;28;20101;-74
2023/05/24 06:52:31;;;;;;;21.50;5.80;;;11.90;99.90;;;;;;5066578;28;20044;-77
2023/05/24 06:54:56;;;;;;;24.67;6.60;;;11.90;99.90;;;;;;5067932;28;20092;-77
2023/05/24 06:57:23;;;;;;;19.92;5.78;;;11.90;99.90;;;;;;5066609;28;20282;-77
2023/05/24 06:59:49;;;;;;;17.17;6.00;;;12.00;99.90;;;;;;5053273;28;20047;-76
2023/05/24 07:02:15;;;;;;;15.70;5.63;;;12.10;99.90;;;;;;5064034;28;20036;-74
2023/05/24 07:04:41;;;;;;;14.70;5.15;;;12.20;99.90;;;;;;5053447;28;20052;-74
2023/05/24 07:07:07;;;;;;;19.65;4.38;;;12.40;99.90;;;;;;5063821;28;20063;-74
2023/05/24 07:09:34;;;;;;;16.95;5.13;;;12.50;99.90;;;;;;5081745;28;20075;-74
2023/05/24 07:12:01;;;;;;;17.85;4.20;;;12.70;99.90;;;;;;5046065;28;20124;-74
2023/05/24 07:14:27;;;;;;;20.05;5.32;;;12.90;99.90;;;;;;5067008;28;20035;-75
2023/05/24 07:16:58;;;;;;;11.60;4.30;;;13.10;99.90;;;;;;5078891;28;20074;-74
2023/05/24 07:19:27;;;;;;;16.02;4.30;;;13.20;99.90;;;;;;5078246;28;20059;-74
2023/05/24 07:21:55;;;;;;;17.70;4.93;;;13.10;99.90;;;;;;5049908;28;20510;-74
2023/05/24 07:24:24;;;;;;;15.60;4.22;;;13.00;99.90;;;;;;5069144;28;20457;-74
2023/05/24 07:26:52;;;;;;;16.02;4.30;;;13.00;99.90;;;;;;5061578;28;20036;-74
2023/05/24 07:29:20;;;;;;;13.20;4.15;;;13.00;99.90;;;;;;5066885;28;20063;-74
2023/05/24 07:31:47;;;;;;;12.45;4.70;;;13.10;99.90;;;;;;5064334;28;20129;-74
2023/05/24 07:34:13;;;;;;;14.88;4.43;;;13.20;99.90;;;;;;5051396;28;20494;-74
2023/05/24 07:36:39;;;;;;;13.10;4.25;;;13.40;99.90;;;;;;5079677;28;20051;-74
2023/05/24 07:39:08;;;;;;;11.75;3.70;;;13.50;99.90;;;;;;5048619;28;20047;-74
2023/05/24 07:41:35;;;;;;;12.02;3.33;;;13.60;99.90;;;;;;5045288;28;20048;-74
2023/05/24 07:44:01;;;;;;;12.25;3.92;;;13.50;99.90;;;;;;5081512;28;20131;-77
2023/05/24 07:46:27;;;;;;;12.88;4.30;;;13.50;99.90;;;;;;5064470;28;20032;-78
2023/05/24 07:48:52;;;;;;;13.23;4.75;;;13.30;99.90;;;;;;5062158;28;20093;-76
2023/05/24 07:51:19;;;;;;;17.17;4.45;;;13.20;99.90;;;;;;5065452;28;20061;-75
2023/05/24 07:53:45;;;;;;;13.40;4.07;;;13.20;99.90;;;;;;5079519;28;20055;-77
2023/05/24 07:56:11;;;;;;;13.85;4.30;;;13.10;99.90;;;;;;5034007;28;20394;-76
2023/05/24 07:58:39;;;;;;;14.02;4.35;;;13.00;99.90;;;;;;5060566;28;20055;-76
2023/05/24 08:01:05;;;;;;;16.30;4.63;;;13.00;99.90;;;;;;5051568;28;20036;-75
2023/05/24 08:03:31;;;;;;;11.50;4.35;;;12.90;99.90;;;;;;5066262;28;20068;-76
2023/05/24 08:05:57;;;;;;;10.30;3.78;;;13.00;99.90;;;;;;5066055;28;20068;-76
2023/05/24 08:08:23;;;;;;;11.20;3.42;;;13.10;99.90;;;;;;5059443;28;20051;-76
2023/05/24 08:10:48;;;;;;;13.52;3.97;;;13.10;99.90;;;;;;5067226;28;20410;-75
2023/05/24 08:13:14;;;;;;;10.98;3.85;;;13.20;99.90;;;;;;5047864;28;20036;-76
2023/05/24 08:15:40;;;;;;;11.18;4.07;;;13.20;99.90;;;;;;5084448;28;20173;-77
2023/05/24 08:18:06;;;;;;;11.32;3.90;;;13.20;99.90;;;;;;5043829;28;20049;-77
2023/05/24 08:20:35;;;;;;;17.38;4.15;;;13.30;99.90;;;;;;5047660;28;20036;-76
2023/05/24 08:23:01;;;;;;;13.32;3.75;;;13.40;99.90;;;;;;5032978;28;20139;-77
2023/05/24 08:25:27;;;;;;;12.48;4.40;;;13.40;99.90;;;;;;5050946;28;20433;-76
2023/05/24 08:27:54;;;;;;;13.10;4.30;;;13.60;99.90;;;;;;5078722;28;20052;-77
2023/05/24 08:30:23;;;;;;;12.43;4.28;;;13.70;99.90;;;;;;5065700;28;20050;-76
2023/05/24 08:32:51;;;;;;;14.40;4.45;;;13.90;99.90;;;;;;5062845;28;20049;-76
2023/05/24 08:35:16;;;;;;;15.35;4.47;;;14.00;99.90;;;;;;5063241;28;20036;-76
2023/05/24 08:37:42;;;;;;;13.07;4.32;;;14.00;99.90;;;;;;5065112;28;20040;-76
2023/05/24 08:40:08;;;;;;;14.25;5.03;;;14.10;99.90;;;;;;5080031;28;20052;-75
2023/05/24 08:42:37;;;;;;;14.02;4.75;;;14.10;99.90;;;;;;5063519;28;20369;-77
2023/05/24 08:45:08;;;;;;;15.13;4.25;;;14.20;99.90;;;;;;5066000;28;20080;-77
2023/05/24 08:47:35;;;;;;;12.65;4.25;;;14.40;99.90;;;;;;5062950;28;20037;-77
2023/05/24 08:50:03;;;;;;;14.73;4.35;;;14.60;99.90;;;;;;5063557;28;20078;-77
2023/05/24 08:52:31;;;;;;;16.33;4.28;;;14.80;99.90;;;;;;5062621;28;20036;-77
2023/05/24 08:55:04;;;;;;;14.70;4.38;;;14.80;99.90;;;;;;5084023;28;20043;-76
2023/05/24 08:57:33;;;;;;;14.43;4.25;;;14.80;99.90;;;;;;5067649;28;20119;-76
2023/05/24 08:59:59;;;;;;;13.63;4.70;;;14.60;99.90;;;;;;5059503;28;20499;-77
2023/05/24 09:02:25;;;;;;;12.80;4.70;;;14.70;99.90;;;;;;5080892;28;20355;-76
2023/05/24 09:04:52;;;;;;;14.18;4.00;;;15.00;99.90;;;;;;5080998;28;20040;-77
2023/05/24 09:07:23;;;;;;;11.25;3.88;;;15.30;99.90;;;;;;5063555;28;20444;-77
2023/05/24 09:10:03;;;;;;;12.27;3.58;;;15.30;99.90;;;;;;5079839;28;20044;-76
2023/05/24 09:12:31;;;;;;;12.57;4.00;;;15.20;99.90;;;;;;5059899;28;20044;-76
2023/05/24 09:14:58;;;;;;;11.30;3.95;;;15.10;99.90;;;;;;5059438;28;20055;-76
2023/05/24 09:17:24;;;;;;;14.00;4.28;;;15.00;99.90;;;;;;5063735;28;21159;-76
2023/05/24 09:19:52;;;;;;;14.30;4.20;;;14.90;99.90;;;;;;5065309;28;20040;-76
2023/05/24 09:22:19;;;;;;;12.90;4.03;;;14.80;99.90;;;;;;5063256;28;20047;-76
2023/05/24 09:25:04;;;;;;;10.20;3.40;;;14.60;99.90;;;;;;5060842;28;20048;-76
2023/05/24 09:27:33;;;;;;;9.20;3.50;;;14.50;99.90;;;;;;5065149;28;20048;-76
2023/05/24 09:30:00;;;;;;;10.80;3.35;;;14.60;99.90;;;;;;5078158;28;20055;-76
2023/05/24 09:32:27;;;;;;;9.45;3.35;;;14.90;99.90;;;;;;5078906;28;20113;-76
2023/05/24 09:34:54;;;;;;;13.23;4.32;;;15.00;99.90;;;;;;5062881;28;20048;-76
2023/05/24 09:37:23;;;;;;;9.68;3.65;;;15.10;99.90;;;;;;5080944;28;20036;-76
2023/05/24 09:39:52;;;;;;;7.78;3.03;;;15.10;99.90;;;;;;5059842;28;20045;-76
2023/05/24 09:42:27;;;;;;;9.50;2.97;;;15.20;99.90;;;;;;5065153;28;20044;-75
2023/05/24 09:45:07;;;;;;;9.43;3.08;;;15.40;99.90;;;;;;5062105;28;20113;-76
2023/05/24 09:47:35;;;;;;;6.20;2.72;;;15.50;99.90;;;;;;5059969;28;20498;-76
2023/05/24 09:50:10;;;;;;;8.70;3.00;;;15.50;99.90;;;;;;5065344;28;20048;-75
2023/05/24 09:52:37;;;;;;;8.52;2.70;;;15.50;99.90;;;;;;5063506;28;20048;-75
2023/05/24 09:55:19;;;;;;;7.82;2.88;;;15.60;99.80;;;;;;5066692;28;20070;-76
2023/05/24 09:58:11;;;;;;;9.05;2.80;;;15.70;99.90;;;;;;5064585;28;20133;-74
2023/05/24 10:00:40;;;;;;;9.52;3.22;;;15.80;99.90;;;;;;5078554;28;20563;-73
2023/05/24 10:03:14;;;;;;;8.25;2.88;;;15.80;99.00;;;;;;5067025;28;20051;-73
2023/05/24 10:05:43;;;;;;;10.13;3.25;;;15.90;99.70;;;;;;5080463;28;20104;-75
2023/05/24 10:08:13;;;;;;;7.32;2.60;;;16.10;98.80;;;;;;5067410;28;20044;-74
2023/05/24 10:10:40;;;;;;;11.77;2.90;;;16.30;96.50;;;;;;5063499;28;20499;-76
2023/05/24 10:13:06;;;;;;;10.45;3.05;;;16.40;94.90;;;;;;5061995;28;20410;-76
2023/05/24 10:15:32;;;;;;;7.57;3.10;;;16.50;95.40;;;;;;5062729;28;20037;-73
2023/05/24 10:18:06;;;;;;;10.70;3.60;;;16.50;94.90;;;;;;5080695;28;20144;-74
2023/05/24 10:20:34;;;;;;;8.70;3.17;;;16.40;96.00;;;;;;5034067;28;20036;-74
2023/05/24 10:23:03;;;;;;;12.23;2.90;;;16.30;95.30;;;;;;5077851;28;20045;-74
2023/05/24 10:25:33;;;;;;;8.82;3.20;;;16.20;96.90;;;;;;5065408;28;20246;-74
2023/05/24 10:28:06;;;;;;;14.00;3.55;;;16.30;97.10;;;;;;5078832;28;20051;-75
2023/05/24 10:30:34;;;;;;;7.80;3.05;;;16.40;94.90;;;;;;5082383;28;20118;-74
2023/05/24 10:33:03;;;;;;;8.25;3.10;;;16.50;97.80;;;;;;5078518;28;20036;-74
2023/05/24 10:35:31;;;;;;;8.77;3.22;;;16.80;99.60;;;;;;5065199;28;20044;-74
2023/05/24 10:37:56;;;;;;;9.32;2.97;;;17.10;95.90;;;;;;5079060;28;20083;-73
2023/05/24 10:40:25;;;;;;;9.85;2.75;;;17.10;92.20;;;;;;5065885;28;20083;-74
2023/05/24 10:42:53;;;;;;;8.80;3.03;;;16.90;93.00;;;;;;5082446;28;20503;-75
2023/05/24 10:45:22;;;;;;;11.05;2.90;;;16.80;94.50;;;;;;5063979;28;20087;-74
2023/05/24 10:47:55;;;;;;;8.65;2.67;;;16.80;93.30;;;;;;5068694;28;20048;-74
2023/05/24 10:50:24;;;;;;;7.15;3.08;;;16.90;95.30;;;;;;5049974;28;20101;-74
2023/05/24 10:52:50;;;;;;;10.30;3.15;;;17.10;97.80;;;;;;5030688;28;20558;-74
2023/05/24 10:55:18;;;;;;;9.45;2.95;;;17.20;98.00;;;;;;5096107;28;20044;-73
2023/05/24 10:57:44;;;;;;;7.63;2.70;;;17.10;96.10;;;;;;5064655;28;20040;-74
2023/05/24 11:00:19;;;;;;;8.48;2.92;;;16.90;93.80;;;;;;5084904;28;20440;-75
2023/05/24 11:03:22;;;;;;;9.82;3.67;;;16.50;92.90;;;;;;5080988;28;20040;-75
2023/05/24 11:05:49;;;;;;;9.95;3.17;;;16.20;93.50;;;;;;5069137;28;20052;-75
2023/05/24 11:08:45;;;;;;;7.93;2.80;;;15.90;94.40;;;;;;5080432;28;20048;-75
2023/05/24 11:11:19;;;;;;;7.90;3.08;;;15.70;94.30;;;;;;5050374;28;20382;-75
2023/05/24 11:13:46;;;;;;;6.75;3.10;;;15.60;95.70;;;;;;5082061;28;20044;-75
2023/05/24 11:16:36;;;;;;;8.65;3.25;;;15.50;96.30;;;;;;5083277;28;20044;-75
2023/05/24 11:19:18;;;;;;;10.02;2.80;;;15.40;96.50;;;;;;5078571;28;20092;-74
2023/05/24 11:21:46;;;;;;;12.10;3.58;;;15.30;96.10;;;;;;5065270;28;20032;-74
2023/05/24 11:24:12;;;;;;;8.77;3.50;;;15.20;96.80;;;;;;5065763;28;20054;-75
2023/05/24 11:26:38;;;;;;;9.30;3.60;;;15.10;97.80;;;;;;5058813;28;20554;-74
2023/05/24 11:29:07;;;;;;;11.38;3.92;;;15.00;98.00;;;;;;5063967;28;20150;-74
2023/05/24 11:31:33;;;;;;;9.55;3.45;;;14.90;99.00;;;;;;5065621;28;20040;-74
2023/05/24 11:34:00;;;;;;;10.70;3.55;;;14.80;99.80;;;;;;5082416;28;20071;-74
2023/05/24 11:36:26;;;;;;;10.85;3.70;;;14.70;99.90;;;;;;5063048;28;21000;-75
2023/05/24 11:38:54;;;;;;;10.98;3.65;;;14.70;99.90;;;;;;5064989;28;20042;-74
2023/05/24 11:41:19;;;;;;;10.05;3.63;;;14.60;99.90;;;;;;5076201;28;20571;-74
2023/05/24 11:43:46;;;;;;;10.98;3.97;;;14.70;99.90;;;;;;5067862;28;20032;-74
2023/05/24 11:46:12;;;;;;;11.27;3.83;;;14.70;99.90;;;;;;5065920;28;20363;-74
2023/05/24 11:48:38;;;;;;;13.05;4.05;;;14.60;99.90;;;;;;5067858;28;20048;-74
2023/05/24 11:51:04;;;;;;;12.50;3.80;;;14.60;99.90;;;;;;5063744;28;20043;-74
2023/05/24 11:53:31;;;;;;;11.23;4.00;;;14.70;99.90;;;;;;5050998;28;20032;-73
2023/05/24 11:55:56;;;;;;;13.27;4.03;;;14.70;99.90;;;;;;5044932;28;20040;-74
2023/05/24 11:58:25;;;;;;;9.07;3.65;;;14.70;99.90;;;;;;5080864;28;20533;-74
2023/05/24 12:00:54;;;;;;;12.93;4.25;;;14.70;99.90;;;;;;5061698;28;20064;-74
2023/05/24 12:03:23;;;;;;;10.95;3.97;;;14.80;99.90;;;;;;5078204;28;20036;-74
2023/05/24 12:05:50;;;;;;;13.98;3.90;;;14.90;99.90;;;;;;5065537;28;20087;-74
2023/05/24 12:08:16;;;;;;;14.73;4.40;;;14.90;99.90;;;;;;5065034;28;20105;-74
2023/05/24 12:10:42;;;;;;;14.18;4.25;;;14.90;99.90;;;;;;5065400;28;20502;-74
2023/05/24 12:13:24;;;;;;;11.70;3.80;;;14.90;99.90;;;;;;5065616;28;20402;-74
2023/05/24 12:15:53;;;;;;;13.90;4.97;;;14.90;99.90;;;;;;5064678;28;20564;-74
2023/05/24 12:18:20;;;;;;;10.18;3.47;;;14.90;99.90;;;;;;5080403;28;20114;-74
2023/05/24 12:20:50;;;;;;;11.80;3.88;;;14.90;99.90;;;;;;5064864;28;20384;-74
2023/05/24 12:23:22;;;;;;;11.13;4.00;;;14.90;99.90;;;;;;5078674;28;20052;-74
2023/05/24 12:25:49;;;;;;;14.40;3.70;;;14.90;99.90;;;;;;5078156;28;20036;-75
2023/05/24 12:28:22;;;;;;;10.65;3.67;;;14.80;99.90;;;;;;5048875;28;20142;-74
2023/05/24 12:30:48;;;;;;;10.13;3.10;;;14.80;99.90;;;;;;5079244;28;20047;-74
2023/05/24 12:33:17;;;;;;;9.95;3.42;;;14.60;99.90;;;;;;5045946;28;20494;-75
2023/05/24 12:35:43;;;;;;;10.00;3.45;;;14.50;99.90;;;;;;5061864;28;20580;-75
2023/05/24 12:38:09;;;;;;;10.70;3.58;;;14.40;99.90;;;;;;5048615;28;20039;-74
2023/05/24 12:40:35;;;;;;;11.13;3.28;;;14.30;99.90;;;;;;5045452;28;20060;-76
2023/05/24 12:43:03;;;;;;;11.43;3.67;;;14.30;99.90;;;;;;5049074;28;20498;-76
2023/05/24 12:45:29;;;;;;;7.72;3.10;;;14.30;99.90;;;;;;5079717;28;20086;-76
2023/05/24 12:47:56;;;;;;;11.00;3.63;;;14.30;99.90;;;;;;5064088;28;20036;-76
2023/05/24 12:50:24;;;;;;;14.82;4.00;;;14.30;99.90;;;;;;5065608;28;20036;-76
2023/05/24 12:52:55;;;;;;;9.73;3.55;;;14.30;99.90;;;;;;5062900;28;20068;-75